Orchid Ace — 7JDE — position and weather

sailwx.info

Track history (hours):
 
Tides and Currents Weather Stations Pressure Air Temp Water Temp Dewpoint Dewpoint Depression Visibility Wind Speed Wind Dir Waves Ship Positions

Orchid Ace

Last reported at 2015-Aug-28 09:23 UTC. Time now 2015-Aug-31 13:23 UTC.
Position N 33°41' W 123°17'.

Length 200 m; draft 8.5 m.

Type: Cargo ship. MMSI: 432651000.

Date/timePositionNaut miles runAvg speedWind from/ knotsBaromVisibWave heightAir tempDewpointWater temp
2015-Aug-28 09:23N 33°41' W 123°17'2117.1
2015-Aug-28 08:07N 33°41' W 122°51'1017.1
2015-Aug-28 07:33N 33°42' W 122°40'1717.1
2015-Aug-28 06:33N 33°42' W 122°19'1916.9
2015-Aug-28 05:27N 33°42' W 121°57'1516.7
2015-Aug-28 04:33N 33°43' W 121°39'1717.2
2015-Aug-28 03:33N 33°43' W 121°18'1717.4
2015-Aug-28 02:33N 33°43' W 120°57'1717.4
2015-Aug-28 01:33N 33°44' W 120°36'5317.2
2015-Aug-27 22:29N 33°46' W 119°33'1617.3
2015-Aug-27 21:33N 33°54' W 119°16'1313.4
2015-Aug-27 20:33N 34°07' W 119°14'2 0.2
2015-Aug-27 12:30N 34°09' W 119°12'4 4.7
2015-Aug-27 11:33N 34°05' W 119°14'6 6.2
2015-Aug-27 10:33N 34°01' W 119°08'8 7.8
2015-Aug-27 09:33N 33°53' W 119°06'1111.5
2015-Aug-27 08:33N 33°47' W 118°54'1111.5
2015-Aug-27 07:33N 33°42' W 118°42'1111.1
2015-Aug-27 06:33N 33°36' W 118°30'1111.0
2015-Aug-27 05:33N 33°33' W 118°18'1110.6
2015-Aug-27 04:33N 33°42' W 118°11'3 2.6
2015-Aug-27 03:33N 33°45' W 118°13'0 0.0
2015-Aug-27 02:33N 33°45' W 118°13'0 0.0
2015-Aug-27 01:32N 33°45' W 118°13'0 0.0
2015-Aug-27 00:33N 33°45' W 118°13'0 0.0
2015-Aug-26 23:33N 33°45' W 118°13'0 0.0
2015-Aug-26 22:33N 33°45' W 118°13'0 0.0
2015-Aug-26 21:33N 33°45' W 118°13'0 0.0
2015-Aug-26 20:33N 33°45' W 118°13'0 0.0
2015-Aug-26 19:33N 33°45' W 118°13'0 0.0
2015-Aug-26 18:33N 33°45' W 118°13'0 0.0
2015-Aug-26 17:33N 33°45' W 118°13'0 0.0
2015-Aug-26 16:33N 33°45' W 118°13'0 0.0
2015-Aug-26 15:33N 33°45' W 118°13'0 0.0
2015-Aug-26 14:33N 33°45' W 118°13'0 0.0
2015-Aug-26 13:33N 33°45' W 118°13'1 1.2
2015-Aug-26 12:33N 33°44' W 118°12'6 6.4
2015-Aug-26 11:33N 33°38' W 118°10'1010.3
2015-Aug-26 10:33N 33°28' W 118°07'1110.9
2015-Aug-26 09:33N 33°17' W 118°03'1111.2
2015-Aug-26 08:33N 33°07' W 117°59'1212.5
2015-Aug-26 07:34N 32°55' W 117°55'1414.4
2015-Aug-26 06:34N 32°41' W 117°51'1413.9
2015-Aug-26 05:33N 32°27' W 117°47'1413.9
2015-Aug-26 04:33N 32°14' W 117°42'1413.7
2015-Aug-26 03:33N 32°01' W 117°38'3113.6
2015-Aug-26 01:16N 31°31' W 117°28'10 5.6
2015-Aug-25 23:33N 31°40' W 117°33'3 3.3
2015-Aug-25 22:34N 31°37' W 117°31'1414.3
2015-Aug-25 21:33N 31°23' W 117°26'1714.3
2015-Aug-25 20:23N 31°07' W 117°21'1314.2
2015-Aug-25 19:28N 30°54' W 117°18'2913.9
2015-Aug-25 17:25N 30°26' W 117°10'1416.4
2015-Aug-25 16:33N 30°12' W 117°06'1817.0
2015-Aug-25 15:29N 29°55' W 117°00'1313.9
2015-Aug-25 14:34N 29°42' W 116°57'1413.6
2015-Aug-25 13:33N 29°29' W 116°53'1413.7
2015-Aug-25 12:31N 29°15' W 116°48'1513.4
2015-Aug-25 11:23N 29°00' W 116°44'1214.0
2015-Aug-25 10:32N 28°50' W 116°38'1714.1
2015-Aug-25 09:19N 28°36' W 116°27'1114.3
2015-Aug-25 08:33N 28°26' W 116°21'3014.2
2015-Aug-25 06:25N 28°01' W 116°03'  
Track history (hours):
 
Tides and Currents Weather Stations Pressure Air Temp Water Temp Dewpoint Dewpoint Depression Visibility Wind Speed Wind Dir Waves Ship Positions

Orchid Ace

Last reported at 2015-Aug-28 09:23 UTC. Time now 2015-Aug-31 13:23 UTC.
Position N 33°41' W 123°17'.

Length 200 m; draft 8.5 m.

Type: Cargo ship. MMSI: 432651000.

Date/timePositionNaut miles runAvg speedWind from/ knotsBaromVisibWave heightAir tempDewpointWater temp
2015-Aug-28 09:23N 33°41' W 123°17'2117.1
2015-Aug-28 08:07N 33°41' W 122°51'1017.1
2015-Aug-28 07:33N 33°42' W 122°40'1717.1
2015-Aug-28 06:33N 33°42' W 122°19'1916.9
2015-Aug-28 05:27N 33°42' W 121°57'1516.7
2015-Aug-28 04:33N 33°43' W 121°39'1717.2
2015-Aug-28 03:33N 33°43' W 121°18'1717.4
2015-Aug-28 02:33N 33°43' W 120°57'1717.4
2015-Aug-28 01:33N 33°44' W 120°36'5317.2
2015-Aug-27 22:29N 33°46' W 119°33'1617.3
2015-Aug-27 21:33N 33°54' W 119°16'1313.4
2015-Aug-27 20:33N 34°07' W 119°14'2 0.2
2015-Aug-27 12:30N 34°09' W 119°12'4 4.7
2015-Aug-27 11:33N 34°05' W 119°14'6 6.2
2015-Aug-27 10:33N 34°01' W 119°08'8 7.8
2015-Aug-27 09:33N 33°53' W 119°06'1111.5
2015-Aug-27 08:33N 33°47' W 118°54'1111.5
2015-Aug-27 07:33N 33°42' W 118°42'1111.1
2015-Aug-27 06:33N 33°36' W 118°30'1111.0
2015-Aug-27 05:33N 33°33' W 118°18'1110.6
2015-Aug-27 04:33N 33°42' W 118°11'3 2.6
2015-Aug-27 03:33N 33°45' W 118°13'0 0.0
2015-Aug-27 02:33N 33°45' W 118°13'0 0.0
2015-Aug-27 01:32N 33°45' W 118°13'0 0.0
2015-Aug-27 00:33N 33°45' W 118°13'0 0.0
2015-Aug-26 23:33N 33°45' W 118°13'0 0.0
2015-Aug-26 22:33N 33°45' W 118°13'0 0.0
2015-Aug-26 21:33N 33°45' W 118°13'0 0.0
2015-Aug-26 20:33N 33°45' W 118°13'0 0.0
2015-Aug-26 19:33N 33°45' W 118°13'0 0.0
2015-Aug-26 18:33N 33°45' W 118°13'0 0.0
2015-Aug-26 17:33N 33°45' W 118°13'0 0.0
2015-Aug-26 16:33N 33°45' W 118°13'0 0.0
2015-Aug-26 15:33N 33°45' W 118°13'0 0.0
2015-Aug-26 14:33N 33°45' W 118°13'0 0.0
2015-Aug-26 13:33N 33°45' W 118°13'1 1.2
2015-Aug-26 12:33N 33°44' W 118°12'6 6.4
2015-Aug-26 11:33N 33°38' W 118°10'1010.3
2015-Aug-26 10:33N 33°28' W 118°07'1110.9
2015-Aug-26 09:33N 33°17' W 118°03'1111.2
2015-Aug-26 08:33N 33°07' W 117°59'1212.5
2015-Aug-26 07:34N 32°55' W 117°55'1414.4
2015-Aug-26 06:34N 32°41' W 117°51'1413.9
2015-Aug-26 05:33N 32°27' W 117°47'1413.9
2015-Aug-26 04:33N 32°14' W 117°42'1413.7
2015-Aug-26 03:33N 32°01' W 117°38'3113.6
2015-Aug-26 01:16N 31°31' W 117°28'10 5.6
2015-Aug-25 23:33N 31°40' W 117°33'3 3.3
2015-Aug-25 22:34N 31°37' W 117°31'1414.3
2015-Aug-25 21:33N 31°23' W 117°26'1714.3
2015-Aug-25 20:23N 31°07' W 117°21'1314.2
2015-Aug-25 19:28N 30°54' W 117°18'2913.9
2015-Aug-25 17:25N 30°26' W 117°10'1416.4
2015-Aug-25 16:33N 30°12' W 117°06'1817.0
2015-Aug-25 15:29N 29°55' W 117°00'1313.9
2015-Aug-25 14:34N 29°42' W 116°57'1413.6
2015-Aug-25 13:33N 29°29' W 116°53'1413.7
2015-Aug-25 12:31N 29°15' W 116°48'1513.4
2015-Aug-25 11:23N 29°00' W 116°44'1214.0
2015-Aug-25 10:32N 28°50' W 116°38'1714.1
2015-Aug-25 09:19N 28°36' W 116°27'1114.3
2015-Aug-25 08:33N 28°26' W 116°21'3014.2
2015-Aug-25 06:25N 28°01' W 116°03'  

Dump ship's entire track history